createdAt,value
2018-07-27T00:00:04.025Z,25.90
2018-07-27T00:02:31.478Z,25.80
2018-07-27T00:04:58.899Z,25.90
2018-07-27T00:09:53.763Z,25.90
2018-07-27T00:12:21.207Z,25.90
2018-07-27T00:14:48.648Z,26.00
2018-07-27T00:17:16.082Z,26.00
2018-07-27T00:19:43.660Z,26.00
2018-07-27T00:22:11.095Z,26.00
2018-07-27T00:24:38.497Z,26.00
2018-07-27T00:27:05.907Z,26.00
2018-07-27T00:29:33.333Z,26.00
2018-07-27T00:32:00.783Z,26.20
2018-07-27T00:34:28.189Z,26.20
2018-07-27T00:36:55.623Z,26.30
2018-07-27T00:39:23.143Z,26.20
2018-07-27T00:41:50.560Z,26.20
2018-07-27T00:44:17.974Z,26.20
2018-07-27T00:46:45.428Z,26.30
2018-07-27T00:49:12.887Z,26.20
2018-07-27T00:51:40.454Z,26.30
2018-07-27T00:54:07.874Z,26.20
2018-07-27T00:56:35.383Z,26.20
2018-07-27T00:59:02.843Z,26.20
2018-07-27T01:01:30.323Z,26.30
2018-07-27T01:03:57.870Z,26.30
2018-07-27T01:06:25.386Z,26.10
2018-07-27T01:08:52.871Z,26.10
2018-07-27T01:11:20.326Z,26.20
2018-07-27T01:13:47.771Z,26.20
2018-07-27T01:16:15.264Z,26.10
2018-07-27T01:21:10.211Z,26.00
2018-07-27T01:26:05.099Z,25.90
2018-07-27T01:31:00.061Z,25.70
2018-07-27T01:33:27.549Z,25.60
2018-07-27T01:35:55.103Z,25.50
2018-07-27T01:38:22.576Z,25.40
2018-07-27T01:40:50.107Z,25.30
2018-07-27T01:43:17.548Z,25.20
2018-07-27T01:45:44.972Z,25.10
2018-07-27T01:48:12.498Z,25.00
2018-07-27T01:50:40.020Z,24.90
2018-07-27T01:53:07.557Z,24.90
2018-07-27T01:55:34.995Z,24.80
2018-07-27T02:02:57.439Z,24.60
2018-07-27T02:05:24.952Z,24.50
2018-07-27T02:07:52.411Z,24.40
2018-07-27T02:10:20.053Z,24.40
2018-07-27T02:12:47.488Z,24.40
2018-07-27T02:15:14.945Z,24.30
2018-07-27T02:17:42.412Z,24.20
2018-07-27T02:20:09.847Z,24.20
2018-07-27T02:22:37.321Z,24.10
2018-07-27T02:25:04.863Z,24.00
2018-07-27T02:27:32.256Z,24.00
2018-07-27T02:29:59.759Z,23.90
2018-07-27T02:34:54.696Z,23.80
2018-07-27T02:37:22.147Z,23.80
2018-07-27T02:39:49.669Z,23.70
2018-07-27T02:44:44.595Z,23.60
2018-07-27T02:47:12.043Z,23.50
2018-07-27T02:49:39.487Z,23.40
2018-07-27T02:52:07.099Z,23.40
2018-07-27T02:54:34.539Z,23.40
2018-07-27T02:57:01.981Z,23.30
2018-07-27T03:01:56.827Z,23.20
2018-07-27T03:04:24.324Z,23.20
2018-07-27T03:06:51.764Z,23.10
2018-07-27T03:09:19.180Z,23.00
2018-07-27T03:11:46.783Z,23.00
2018-07-27T03:14:14.187Z,23.00
2018-07-27T03:16:41.603Z,23.00
2018-07-27T03:19:09.162Z,23.00
2018-07-27T03:21:36.611Z,22.90
2018-07-27T03:24:04.031Z,22.90
2018-07-27T03:26:31.428Z,22.90
2018-07-27T03:28:58.871Z,22.90
2018-07-27T03:31:26.291Z,22.80
2018-07-27T03:33:53.887Z,22.80
2018-07-27T03:36:21.471Z,22.80
2018-07-27T03:41:16.425Z,22.70
2018-07-27T03:46:11.293Z,22.60
2018-07-27T03:48:38.736Z,22.60
2018-07-27T03:51:06.205Z,22.60
2018-07-27T03:53:33.610Z,22.60
2018-07-27T03:56:01.059Z,22.50
2018-07-27T03:58:28.515Z,22.50
2018-07-27T04:00:55.943Z,22.60
2018-07-27T04:03:23.364Z,22.50
2018-07-27T04:05:50.805Z,22.50
2018-07-27T04:08:18.244Z,22.50
2018-07-27T04:13:13.167Z,22.40
2018-07-27T04:15:40.599Z,22.40
2018-07-27T04:18:08.085Z,22.40
2018-07-27T04:20:35.504Z,22.40
2018-07-27T04:23:02.963Z,22.50
2018-07-27T04:25:30.359Z,22.50
2018-07-27T04:27:57.795Z,22.50
2018-07-27T04:30:25.218Z,22.60
2018-07-27T04:32:52.615Z,22.60
2018-07-27T04:35:20.196Z,22.60
2018-07-27T04:37:47.692Z,22.70
2018-07-27T04:40:15.128Z,22.80
2018-07-27T04:42:42.586Z,22.90
2018-07-27T04:45:10.134Z,23.00
2018-07-27T04:47:37.667Z,23.00
2018-07-27T04:52:33.214Z,23.10
2018-07-27T04:55:00.625Z,23.20
2018-07-27T04:57:28.049Z,23.20
2018-07-27T04:59:55.579Z,23.20
2018-07-27T05:04:51.015Z,23.30
2018-07-27T05:07:18.431Z,23.30
2018-07-27T05:09:45.893Z,23.40
2018-07-27T05:12:13.339Z,23.40
2018-07-27T05:14:40.846Z,23.50
2018-07-27T05:17:08.381Z,23.50
2018-07-27T05:22:03.423Z,23.80
2018-07-27T05:24:30.878Z,24.10
2018-07-27T05:26:58.288Z,24.50
2018-07-27T05:29:25.725Z,24.90
2018-07-27T05:31:53.179Z,25.50
2018-07-27T05:34:20.800Z,26.20
2018-07-27T05:36:48.251Z,26.90
2018-07-27T05:39:15.719Z,27.60
2018-07-27T05:41:43.131Z,28.30
2018-07-27T05:44:10.576Z,28.80
2018-07-27T05:46:38.003Z,29.40
2018-07-27T05:49:05.421Z,29.70
2018-07-27T05:51:32.860Z,29.80
2018-07-27T05:56:28.127Z,29.70
2018-07-27T05:58:55.566Z,29.40
2018-07-27T06:01:23.051Z,29.20
2018-07-27T06:03:50.676Z,28.90
2018-07-27T06:06:18.116Z,28.80
2018-07-27T06:08:45.611Z,28.50
2018-07-27T06:11:13.176Z,28.40
2018-07-27T06:13:40.584Z,28.30
2018-07-27T06:16:08.801Z,28.20
2018-07-27T06:21:04.780Z,28.10
2018-07-27T06:23:32.272Z,28.10
2018-07-27T06:25:59.724Z,28.00
2018-07-27T06:28:27.256Z,28.10
2018-07-27T06:30:55.775Z,28.00
2018-07-27T06:33:23.519Z,28.10
2018-07-27T06:35:52.299Z,28.10
2018-07-27T06:38:19.791Z,28.10
2018-07-27T06:40:47.233Z,28.20
2018-07-27T06:43:14.779Z,28.10
2018-07-27T06:45:42.245Z,28.20
2018-07-27T06:48:15.431Z,28.30
2018-07-27T06:50:42.831Z,28.30
2018-07-27T06:53:10.258Z,28.40
2018-07-27T06:58:05.172Z,28.60
2018-07-27T07:00:32.619Z,28.80
2018-07-27T07:03:01.108Z,28.80
2018-07-27T07:05:28.575Z,28.90
2018-07-27T07:07:56.016Z,29.00
2018-07-27T07:10:23.531Z,29.00
2018-07-27T07:12:50.966Z,29.10
2018-07-27T07:15:18.360Z,29.10
2018-07-27T07:17:45.927Z,29.20
2018-07-27T07:20:13.377Z,29.30
2018-07-27T07:22:40.843Z,29.40
2018-07-27T07:25:08.378Z,29.40
2018-07-27T07:27:35.833Z,29.50
2018-07-27T07:30:03.580Z,29.60
2018-07-27T07:32:31.086Z,29.70
2018-07-27T07:34:58.577Z,29.80
2018-07-27T07:37:26.063Z,29.90
2018-07-27T07:39:53.507Z,29.90
2018-07-27T07:44:49.107Z,30.10
2018-07-27T07:47:16.523Z,30.20
2018-07-27T07:49:43.975Z,30.30
2018-07-27T07:52:11.411Z,30.30
2018-07-27T07:54:38.924Z,30.50
2018-07-27T07:57:06.359Z,30.50
2018-07-27T07:59:33.888Z,30.60
2018-07-27T08:02:01.407Z,30.80
2018-07-27T08:04:28.835Z,30.90
2018-07-27T08:06:56.287Z,31.10
2018-07-27T08:09:23.711Z,31.20
2018-07-27T08:11:51.149Z,31.40
2018-07-27T08:14:18.690Z,31.50
2018-07-27T08:16:46.142Z,31.50
2018-07-27T08:19:13.555Z,31.40
2018-07-27T08:21:41.063Z,31.50
2018-07-27T08:24:08.504Z,31.50
2018-07-27T08:26:46.915Z,31.50
2018-07-27T08:29:19.437Z,31.60
2018-07-27T08:31:48.162Z,31.60
2018-07-27T08:34:16.138Z,31.60
2018-07-27T08:36:43.679Z,31.50
2018-07-27T08:41:40.260Z,31.80
2018-07-27T08:44:08.635Z,31.90
2018-07-27T08:49:03.857Z,31.90
2018-07-27T08:51:31.436Z,32.00
2018-07-27T08:53:59.052Z,32.00
2018-07-27T08:56:26.536Z,32.00
2018-07-27T08:58:54.131Z,32.00
2018-07-27T09:01:21.865Z,32.10
2018-07-27T09:03:49.468Z,32.20
2018-07-27T09:06:17.395Z,32.20
2018-07-27T09:08:44.807Z,32.20
2018-07-27T09:11:12.367Z,32.30
2018-07-27T09:13:39.797Z,32.40
2018-07-27T09:16:07.527Z,32.30
2018-07-27T09:18:34.979Z,32.30
2018-07-27T09:21:02.421Z,32.40
2018-07-27T09:25:57.671Z,32.40
2018-07-27T09:28:25.278Z,32.40
2018-07-27T09:30:52.991Z,32.60
2018-07-27T09:33:20.451Z,32.80
2018-07-27T09:35:49.009Z,33.00
2018-07-27T09:38:16.527Z,33.10
2018-07-27T09:40:44.025Z,33.20
2018-07-27T09:45:38.980Z,33.20
2018-07-27T09:48:06.183Z,33.50
2018-07-27T09:50:33.634Z,33.80
2018-07-27T09:53:01.099Z,33.90
2018-07-27T09:55:28.599Z,34.00
2018-07-27T10:00:29.243Z,34.20
2018-07-27T10:02:56.822Z,34.30
2018-07-27T10:05:24.219Z,34.60
2018-07-27T10:07:51.632Z,34.80
2018-07-27T10:10:19.123Z,35.00
2018-07-27T10:12:46.653Z,35.30
2018-07-27T10:15:14.067Z,35.70
2018-07-27T10:17:41.516Z,35.90
2018-07-27T10:20:08.954Z,36.00
2018-07-27T10:22:36.359Z,36.20
2018-07-27T10:27:31.229Z,36.50
2018-07-27T10:29:58.655Z,36.70
2018-07-27T10:32:26.088Z,37.00
2018-07-27T10:34:53.523Z,37.00
2018-07-27T10:37:20.964Z,36.90
2018-07-27T10:39:48.448Z,36.90
2018-07-27T10:42:15.895Z,37.00
2018-07-27T10:44:43.287Z,36.90
2018-07-27T10:47:10.733Z,37.10
2018-07-27T10:49:38.159Z,37.30
2018-07-27T10:52:05.835Z,37.30
2018-07-27T10:54:33.321Z,37.50
2018-07-27T10:59:28.279Z,37.40
2018-07-27T11:01:55.739Z,37.30
2018-07-27T11:04:23.202Z,37.40
2018-07-27T11:06:50.599Z,37.40
2018-07-27T11:09:18.020Z,37.30
2018-07-27T11:11:45.431Z,37.60
2018-07-27T11:14:12.884Z,37.60
2018-07-27T11:16:40.365Z,37.50
2018-07-27T11:19:08.008Z,37.70
2018-07-27T11:21:35.456Z,37.90
2018-07-27T11:24:02.944Z,38.10
2018-07-27T11:26:30.359Z,38.40
2018-07-27T11:28:57.919Z,38.70
2018-07-27T11:31:25.433Z,39.00
2018-07-27T11:33:52.873Z,39.00
2018-07-27T11:36:20.324Z,38.70
2018-07-27T11:38:47.735Z,38.40
2018-07-27T11:43:42.293Z,38.40
2018-07-27T11:46:09.559Z,38.40
2018-07-27T11:48:36.784Z,38.20
2018-07-27T11:51:04.022Z,37.90
2018-07-27T11:53:31.262Z,37.90
2018-07-27T11:55:58.519Z,37.90
2018-07-27T11:58:25.737Z,37.70
2018-07-27T12:00:52.999Z,37.80
2018-07-27T12:03:20.235Z,37.80
2018-07-27T12:05:47.455Z,37.80
2018-07-27T12:08:14.762Z,38.10
2018-07-27T12:10:41.997Z,38.50
2018-07-27T12:13:09.316Z,38.60
2018-07-27T12:15:36.574Z,38.60
2018-07-27T12:18:03.924Z,38.50
2018-07-27T12:20:31.604Z,38.10
2018-07-27T12:22:58.950Z,37.90
2018-07-27T12:25:26.239Z,37.80
2018-07-27T12:27:53.459Z,37.60
2018-07-27T12:30:20.703Z,37.70
2018-07-27T12:32:47.960Z,38.20
2018-07-27T12:35:15.616Z,38.80
2018-07-27T12:37:42.863Z,39.10
2018-07-27T12:40:10.133Z,38.90
2018-07-27T12:42:37.405Z,39.10
2018-07-27T12:45:04.802Z,39.10
2018-07-27T12:47:32.060Z,39.20
2018-07-27T12:49:59.296Z,39.40
2018-07-27T12:52:26.618Z,39.70
2018-07-27T12:54:53.979Z,39.60
2018-07-27T12:57:21.199Z,39.70
2018-07-27T12:59:48.468Z,39.70
2018-07-27T13:02:15.687Z,39.80
2018-07-27T13:04:42.895Z,39.80
2018-07-27T13:07:10.379Z,39.80
2018-07-27T13:09:37.691Z,39.70
2018-07-27T13:12:04.983Z,39.40
2018-07-27T13:16:59.503Z,39.00
2018-07-27T13:19:26.735Z,38.90
2018-07-27T13:24:21.267Z,38.50
2018-07-27T13:26:48.532Z,39.00
2018-07-27T13:29:15.759Z,39.10
2018-07-27T13:31:44.765Z,39.00
2018-07-27T13:37:04.717Z,39.00
2018-07-27T13:39:33.048Z,38.70
2018-07-27T13:42:01.733Z,38.60
2018-07-27T13:44:30.096Z,38.60
2018-07-27T13:46:57.563Z,38.70
2018-07-27T13:49:25.399Z,38.60
2018-07-27T13:51:53.144Z,38.50
2018-07-27T13:54:20.656Z,38.50
2018-07-27T13:56:48.233Z,38.60
2018-07-27T13:59:16.619Z,38.40
2018-07-27T14:01:44.204Z,38.60
2018-07-27T14:04:11.611Z,38.80
2018-07-27T14:06:39.252Z,38.80
2018-07-27T14:09:08.639Z,38.80
2018-07-27T14:11:36.085Z,38.90
2018-07-27T14:14:04.003Z,38.80
2018-07-27T14:18:58.975Z,38.50
2018-07-27T14:21:26.540Z,38.70
2018-07-27T14:23:53.973Z,38.40
2018-07-27T14:26:21.999Z,38.60
2018-07-27T14:28:49.515Z,38.80
2018-07-27T14:31:17.020Z,38.70
2018-07-27T14:36:11.995Z,38.60
2018-07-27T14:38:39.428Z,38.50
2018-07-27T14:41:06.920Z,38.00
2018-07-27T14:46:02.128Z,37.90
2018-07-27T14:48:29.647Z,38.10
2018-07-27T14:50:57.139Z,38.10
2018-07-27T14:53:24.611Z,38.10
2018-07-27T14:55:52.135Z,37.90
2018-07-27T14:58:19.730Z,37.80
2018-07-27T15:03:14.851Z,37.60
2018-07-27T15:10:37.327Z,37.70
2018-07-27T15:13:04.935Z,37.70
2018-07-27T15:15:32.412Z,37.70
2018-07-27T15:17:59.874Z,37.70
2018-07-27T15:20:27.306Z,37.80
2018-07-27T15:22:54.875Z,37.90
2018-07-27T15:25:22.427Z,37.80
2018-07-27T15:27:49.903Z,37.80
2018-07-27T15:30:17.371Z,37.80
2018-07-27T15:32:44.814Z,37.80
2018-07-27T15:35:12.243Z,37.70
2018-07-27T15:37:39.659Z,37.80
2018-07-27T15:40:07.219Z,37.80
2018-07-27T15:42:34.673Z,37.70
2018-07-27T15:45:02.144Z,37.60
2018-07-27T15:47:29.692Z,37.30
2018-07-27T15:49:57.172Z,37.10
2018-07-27T15:57:19.530Z,36.60
2018-07-27T15:59:46.975Z,36.50
2018-07-27T16:02:14.372Z,36.30
2018-07-27T16:04:41.945Z,36.30
2018-07-27T16:07:09.577Z,36.10
2018-07-27T16:09:36.984Z,35.90
2018-07-27T16:12:04.419Z,35.90
2018-07-27T16:16:59.279Z,35.80
2018-07-27T16:19:28.120Z,35.70
2018-07-27T16:21:56.438Z,35.70
2018-07-27T16:24:23.912Z,35.70
2018-07-27T16:26:51.366Z,35.60
2018-07-27T16:29:18.923Z,35.60
2018-07-27T16:31:47.398Z,35.40
2018-07-27T16:34:15.036Z,35.40
2018-07-27T16:36:42.648Z,35.40
2018-07-27T16:39:10.552Z,35.40
2018-07-27T16:46:33.312Z,35.40
2018-07-27T16:49:00.883Z,35.30
2018-07-27T16:51:29.159Z,35.30
2018-07-27T16:53:57.718Z,35.30
2018-07-27T16:56:25.156Z,35.20
2018-07-27T16:58:52.711Z,35.20
2018-07-27T17:01:20.551Z,35.10
2018-07-27T17:03:48.004Z,35.00
2018-07-27T17:06:15.551Z,34.90
2018-07-27T17:08:43.028Z,34.90
2018-07-27T17:11:10.524Z,34.90
2018-07-27T17:13:37.981Z,34.80
2018-07-27T17:16:05.461Z,34.70
2018-07-27T17:18:32.949Z,34.70
2018-07-27T17:21:00.367Z,34.70
2018-07-27T17:23:27.825Z,34.70
2018-07-27T17:30:50.326Z,34.70
2018-07-27T17:33:17.740Z,34.70
2018-07-27T17:35:45.176Z,34.60
2018-07-27T17:38:12.683Z,34.60
2018-07-27T17:40:40.180Z,34.60
2018-07-27T17:43:07.706Z,34.60
2018-07-27T17:45:35.144Z,34.50
2018-07-27T17:48:02.589Z,34.40
2018-07-27T17:50:30.039Z,34.40
2018-07-27T17:52:58.460Z,34.30
2018-07-27T17:55:25.879Z,34.20
2018-07-27T17:57:53.914Z,34.10
2018-07-27T18:00:21.364Z,34.00
2018-07-27T18:02:48.955Z,34.10
2018-07-27T18:05:17.477Z,34.00
2018-07-27T18:07:44.979Z,34.00
2018-07-27T18:10:12.320Z,34.00
2018-07-27T18:12:39.824Z,34.00
2018-07-27T18:15:07.119Z,33.80
2018-07-27T18:17:34.368Z,33.80
2018-07-27T18:20:01.643Z,33.80
2018-07-27T18:22:29.234Z,33.70
2018-07-27T18:24:56.507Z,33.80
2018-07-27T18:27:23.791Z,33.70
2018-07-27T18:32:18.598Z,33.60
2018-07-27T18:34:46.539Z,33.50
2018-07-27T18:37:13.968Z,33.50
2018-07-27T18:39:41.324Z,33.50
2018-07-27T18:42:08.589Z,33.40
2018-07-27T18:44:35.849Z,33.20
2018-07-27T18:47:03.131Z,33.10
2018-07-27T18:49:30.383Z,33.00
2018-07-27T18:51:58.339Z,32.80
2018-07-27T18:54:25.593Z,32.80
2018-07-27T18:56:52.931Z,32.80
2018-07-27T18:59:20.178Z,32.70
2018-07-27T19:01:47.441Z,32.60
2018-07-27T19:04:14.751Z,32.60
2018-07-27T19:06:42.108Z,32.50
2018-07-27T19:09:11.916Z,32.40
2018-07-27T19:11:39.404Z,32.40
2018-07-27T19:14:06.994Z,32.30
2018-07-27T19:16:34.332Z,32.30
2018-07-27T19:19:01.660Z,32.20
2018-07-27T19:21:29.775Z,32.20
2018-07-27T19:23:57.184Z,32.20
2018-07-27T19:26:25.384Z,32.10
2018-07-27T19:28:52.703Z,32.10
2018-07-27T19:33:49.176Z,32.00
2018-07-27T19:36:17.384Z,31.90
2018-07-27T19:38:44.904Z,31.80
2018-07-27T19:41:14.074Z,31.70
2018-07-27T19:43:41.744Z,31.60
2018-07-27T19:46:09.079Z,31.60
2018-07-27T19:48:36.320Z,31.50
2018-07-27T19:51:03.568Z,31.40
2018-07-27T19:53:30.832Z,31.50
2018-07-27T19:55:58.098Z,31.50
2018-07-27T19:58:26.203Z,31.30
2018-07-27T20:00:53.464Z,31.30
2018-07-27T20:03:20.716Z,31.20
2018-07-27T20:05:47.993Z,31.20
2018-07-27T20:08:15.286Z,31.20
2018-07-27T20:10:42.573Z,31.20
2018-07-27T20:15:37.044Z,31.00
2018-07-27T20:18:04.366Z,30.90
2018-07-27T20:20:31.632Z,31.00
2018-07-27T20:22:58.869Z,30.80
2018-07-27T20:25:26.157Z,30.70
2018-07-27T20:30:20.703Z,30.80
2018-07-27T20:32:47.946Z,30.80
2018-07-27T20:35:15.184Z,30.70
2018-07-27T20:40:09.735Z,30.70
2018-07-27T20:42:37.071Z,30.60
2018-07-27T20:45:06.603Z,30.60
2018-07-27T20:47:34.043Z,30.50
2018-07-27T20:50:01.330Z,30.50
2018-07-27T20:52:28.575Z,30.50
2018-07-27T20:54:55.975Z,30.50
2018-07-27T20:57:23.416Z,30.30
2018-07-27T20:59:50.829Z,30.30
2018-07-27T21:02:18.280Z,30.20
2018-07-27T21:04:45.723Z,30.10
2018-07-27T21:07:13.156Z,29.90
2018-07-27T21:12:08.091Z,30.00
2018-07-27T21:17:02.983Z,29.90
2018-07-27T21:19:30.496Z,29.70
2018-07-27T21:21:57.940Z,29.60
2018-07-27T21:24:25.321Z,29.60
2018-07-27T21:26:52.759Z,29.50
2018-07-27T21:29:20.256Z,29.40
2018-07-27T21:31:47.731Z,29.30
2018-07-27T21:34:15.243Z,29.20
2018-07-27T21:36:42.743Z,29.00
2018-07-27T21:39:12.155Z,28.90
2018-07-27T21:41:39.675Z,28.80
2018-07-27T21:44:07.223Z,28.90
2018-07-27T21:46:34.860Z,28.70
2018-07-27T21:49:02.327Z,28.70
2018-07-27T21:51:29.811Z,28.70
2018-07-27T21:53:57.226Z,28.60
2018-07-27T21:56:24.676Z,28.70
2018-07-27T21:58:52.202Z,28.70
2018-07-27T22:01:19.660Z,28.60
2018-07-27T22:03:47.229Z,28.50
2018-07-27T22:06:14.707Z,28.50
2018-07-27T22:08:42.241Z,28.30
2018-07-27T22:13:37.152Z,28.10
2018-07-27T22:16:04.584Z,28.10
2018-07-27T22:18:32.109Z,28.00
2018-07-27T22:23:26.943Z,27.80
2018-07-27T22:25:54.391Z,27.70
2018-07-27T22:28:21.763Z,27.60
2018-07-27T22:30:49.179Z,27.50
2018-07-27T22:33:16.649Z,27.40
2018-07-27T22:35:44.175Z,27.30
2018-07-27T22:38:11.589Z,27.20
2018-07-27T22:40:39.032Z,27.20
2018-07-27T22:43:08.483Z,27.20
2018-07-27T22:45:35.899Z,27.20
2018-07-27T22:48:04.622Z,27.20
2018-07-27T22:50:32.095Z,27.30
2018-07-27T22:52:59.680Z,27.30
2018-07-27T22:55:28.220Z,27.20
2018-07-27T22:57:55.714Z,27.20
2018-07-27T23:00:23.125Z,27.20
2018-07-27T23:02:50.593Z,27.10
2018-07-27T23:05:18.012Z,27.10
2018-07-27T23:07:45.431Z,27.10
2018-07-27T23:10:12.962Z,27.00
2018-07-27T23:12:40.439Z,26.90
2018-07-27T23:15:09.789Z,26.80
2018-07-27T23:17:37.291Z,26.70
2018-07-27T23:20:07.258Z,26.70
2018-07-27T23:25:02.245Z,26.50
2018-07-27T23:27:29.662Z,26.40
2018-07-27T23:29:57.168Z,26.40
2018-07-27T23:32:24.617Z,26.30
2018-07-27T23:34:52.067Z,26.20
2018-07-27T23:37:19.580Z,26.20
2018-07-27T23:39:47.305Z,26.10
2018-07-27T23:42:15.855Z,26.10
2018-07-27T23:44:43.250Z,26.00
2018-07-27T23:47:10.684Z,26.00
2018-07-27T23:49:38.129Z,26.00
2018-07-27T23:52:05.788Z,26.00
2018-07-27T23:54:33.231Z,26.00
2018-07-27T23:57:00.664Z,25.90
2018-07-27T23:59:28.131Z,25.90
